Valparaiso, FL

6:39 PM CDT on September 03, 2015 (GMT -0500)
Eglin Air Force Base | | Change Station
CLOSE
Current Station
Airport
Location: Valparaiso,
Elevation: 85 ft
Nearby Weather Stations
Active Advisory: Areal Flood Advisory

Elev 85 ft 30.48 °N, 86.53 °W | Updated 11 minutes ago

Mostly Cloudy
Mostly Cloudy
84 °F
Feels Like 91 °F
N
7
Wind Variable Wind from North

Today
High -- | Low -- °F
--% Chance of Precip.
Yesterday
High -- | Low -- °F
Precip. -- in
6:23 AM 7:06 PM
Waning Gibbous, 66% visible
Pressure 29.92 in
Visibility 10.0 miles
Clouds Scattered Clouds 2100 ft
Scattered Clouds 2700 ft
Mostly Cloudy 16000 ft
Mostly Cloudy 25000 ft
Heat Index 91 °F
Dew Point 73 °F
Humidity 70%
Rainfall 0.00 in
Snow Depth Not available.
UV 0 out of 12
Pollen 7.40 out of 12
Air Quality Not available.
Flu Activity Not available.
SPECI KVPS 032328Z 35006KT 10SM SCT021 SCT027 BKN160 BKN250 29/23 A2992 RMK AO2A $
Pressure 29.92 in
Visibility 10.0 miles
Clouds Scattered Clouds 2100 ft
Scattered Clouds 2700 ft
Mostly Cloudy 16000 ft
Mostly Cloudy 25000 ft
Heat Index 91 °F
Dew Point 73 °F
Humidity 70%
Rainfall 0.00 in
Snow Depth Not available.
UV 0 out of 12
Pollen 7.40 out of 12
Air Quality Not available.
Flu Activity Not available.
SPECI KVPS 032328Z 35006KT 10SM SCT021 SCT027 BKN160 BKN250 29/23 A2992 RMK AO2A $

10-Day Weather Forecast

×

Almanac

Astronomy

Sep. 03, 2015 Rise Set
Actual Time
Civil Twilight
Nautical Twilight
Astronomical Twilight
Moon
Length of Visible Light
Length of Day
Tomorrow will be .
, % of the Moon is Illuminated

Today's Extremes

State Highs State Lows

Community

WunderPhotos

Upload Photos

1,852,063 photos uploaded!

WunderBlogs® & News

Nearby

Air Quality

  Air Quality AQ Index Pollutant
Not available.

Snow Depth

Station Depth Elevation

Earthquake Activity

City Distance Mag. Time & Date
Minimum magnitude displayed is 2.5.

Coastal Water Temperatures

Place Temperature

Stations

Nearby Weather Stations

Station Location Temp. Windchill Dew Point Humidity Wind Precip. Elev Updated Type
                   
Areal Flood Advisory
Statement as of 4:48 PM CDT on September 03, 2015

The National Weather Service in Mobile has issued a

* Urban and Small Stream Flood Advisory for...
central Okaloosa County in northwestern Florida...

* until 645 PM CDT

* at 447 PM CDT... Doppler radar indicated heavy rain due to
thunderstorms. Reports of 1.5 inches in just the last hour and
still raining heavily just southwest of creswtview. This could
cause Urban and Small Stream flooding in the advisory area.

* Some locations that will experience flooding include...
Crestview and Baker.

Lat... Lon 3083 8678 3082 8645 3062 8651 3062 8665
      3069 8679